Flight Track Log - Related Links

Times and Time Zones

All times are in EDT time to prevent confusion due to time zone crossing. See the VH-VQB flight status page for this flight to view local times or setup timezone preferences in your user account.

Time Position Orientation Groundspeed Altitude Reporting Facility
EDT Latitude Longitude Course Direction KTS MPH feet Rate Location/Type
Sun 04:29:37 AM -37.6588 144.7966 274° West 150 173 1,800  Level Aus ATC (RADAR)
Sun 04:30:27 AM -37.6551 144.7367 274° West 210 242 2,600 1,108 Climbing Aus ATC (RADAR)
Sun 04:30:42 AM -37.6563 144.7144 266° West 231 266 3,000 1,756 Climbing Aus ATC (RADAR)
Sun 04:31:08 AM -37.6760 144.6860 220° Southwest 293 337 3,800 1,714 Climbing FlightAware ADS-B
Sun 04:31:17 AM -37.6910 144.6770 220° Southwest 291 335 4,000 1,600 Climbing Aus ATC (RADAR)
Sun 04:31:23 AM -37.6960 144.6770 200° South 315 362 4,200 2,516 Climbing FlightAware ADS-B
Sun 04:31:48 AM -37.7340 144.6820 174° South 326 375 5,300 2,571 Climbing FlightAware ADS-B
Sun 04:31:58 AM -37.7500 144.6860 169° South 342 394 5,700 1,941 Climbing FlightAware ADS-B
Sun 04:32:22 AM -37.7926 144.6959 169° South 354 407 6,400 2,057 Climbing Aus ATC (RADAR)
Sun 04:32:33 AM -37.8060 144.6990 169° South 365 420 6,900 3,833 Climbing FlightAware ADS-B
Sun 04:32:58 AM -37.8500 144.7100 169° South 363 418 8,700 3,943 Climbing FlightAware ADS-B
Sun 04:33:43 AM -37.9240 144.7370 164° South 351 404 11,500 4,000 Climbing FlightAware ADS-B
Sun 04:34:07 AM -37.9617 144.7561 164° South 353 406 13,300 4,400 Climbing Aus ATC (RADAR)
Sun 04:34:13 AM -37.9690 144.7600 164° South 332 382 13,700 2,743 Climbing FlightAware ADS-B
Sun 04:34:42 AM -38.0127 144.7814 164° South 341 392 14,900 1,745 Climbing Aus ATC (RADAR)
Sun 04:35:08 AM -38.0500 144.8000 164° South 365 420 15,300 873 Climbing FlightAware ADS-B
Sun 04:35:37 AM -38.1021 144.8253 164° South 383 441 15,700 900 Climbing Aus ATC (RADAR)
Sun 04:35:48 AM -38.1190 144.8340 164° South 412 474 15,900 1,029 Climbing FlightAware ADS-B
Sun 04:36:12 AM -38.1653 144.8568 164° South 417 480 16,300 1,200 Climbing Aus ATC (RADAR)
Sun 04:36:28 AM -38.1910 144.8700 164° South 430 495 16,700 1,672 Climbing FlightAware ADS-B
Sun 04:37:13 AM -38.2760 144.9130 158° South 452 520 18,000 1,976 Climbing FlightAware ADS-B
Sun 04:37:53 AM -38.3550 144.9530 158° South 451 519 19,500 1,906 Climbing FlightAware ADS-B
Sun 04:38:38 AM -38.4470 145.0000 158° South 467 537 20,700 1,500 Climbing FlightAware ADS-B
Sun 04:39:33 AM -38.5570 145.0550 159° South 472 543 22,000 1,389 Climbing FlightAware ADS-B
Sun 04:40:13 AM -38.6430 145.0990 158° South 482 555 22,900 1,412 Climbing FlightAware ADS-B
Sun 04:40:58 AM -38.7370 145.1470 158° South 488 562 24,000 1,360 Climbing FlightAware ADS-B
Sun 04:41:28 AM -38.8030 145.1800 159° South 501 577 24,600 1,524 Climbing FlightAware ADS-B
Sun 04:42:01 AM -38.8781 145.2184 159° South 496 571 25,600 1,800 Climbing Aus ATC (RADAR)
Sun 04:42:18 AM -38.9090 145.2350 159° South 490 564 26,100 1,543 Climbing FlightAware ADS-B
Sun 04:42:36 AM -38.9528 145.2560 159° South 493 567 26,500 1,455 Climbing Aus ATC (RADAR)
Sun 04:42:51 AM -38.9846 145.2727 158° South 492 566 26,900 1,111 Climbing Aus ATC (RADAR)
Sun 04:43:03 AM -39.0050 145.2840 158° South 485 558 27,000  Climbing FlightAware ADS-B
Sun 04:43:26 AM -39.0586 145.3105 158° South 487 560 26,900  Descending Aus ATC (RADAR)
Sun 04:43:43 AM -39.0910 145.3280 158° South 487 560 27,000  Climbing FlightAware ADS-B
Sun 04:44:21 AM -39.1755 145.3706 158° South 489 563 26,900  Descending Aus ATC (RADAR)
Sun 04:44:28 AM -39.1860 145.3770 158° South 492 566 27,000  Climbing FlightAware ADS-B
Sun 04:44:56 AM -39.2476 145.4197 158° South 496 571 26,900  Descending Aus ATC (RADAR)
Sun 04:45:03 AM -39.2580 145.4290 158° South 504 580 27,000  Climbing FlightAware ADS-B
Sun 04:45:51 AM -39.3575 145.5042 158° South 495 570 26,900  Descending Aus ATC (RADAR)
Sun 04:46:18 AM -39.4000 145.5370 158° South 505 581 27,000 90 Climbing FlightAware ADS-B
Sun 04:46:58 AM -39.4840 145.6000 150° Southeast 506 582 27,000  Level FlightAware ADS-B
Sun 04:47:43 AM -39.5750 145.6690 150° Southeast 507 583 27,000  Level FlightAware ADS-B
Sun 04:48:23 AM -39.6560 145.7300 150° Southeast 507 583 27,000  Level FlightAware ADS-B
Sun 04:49:08 AM -39.7430 145.7970 149° Southeast 507 583 27,000 -90 Level FlightAware ADS-B
Sun 04:49:30 AM -39.8006 145.8424 149° Southeast 497 572 26,900  Descending Aus ATC (RADAR)
Sun 04:49:48 AM -39.8260 145.8600 149° Southeast 504 580 27,000  Climbing FlightAware ADS-B
Sun 04:50:05 AM -39.8724 145.8919 149° Southeast 494 568 26,900  Descending Aus ATC (RADAR)
Sun 04:50:28 AM -39.9060 145.9210 149° Southeast 506 582 27,000  Climbing FlightAware ADS-B
Sun 04:51:00 AM -39.9826 145.9789 149° Southeast 498 573 26,900  Descending Aus ATC (RADAR)
Sun 04:51:13 AM -40.0010 145.9940 149° Southeast 506 582 27,000  Climbing FlightAware ADS-B
Sun 04:51:35 AM -40.0533 146.0322 149° Southeast 498 573 26,900  Descending Aus ATC (RADAR)
Sun 04:51:43 AM -40.0580 146.0380 149° Southeast 508 585 27,000 125 Climbing FlightAware ADS-B
Sun 04:52:23 AM -40.1410 146.1020 149° Southeast 503 579 27,000 -316 Level FlightAware ADS-B
Sun 04:52:40 AM -40.1852 146.1329 149° Southeast 498 573 26,700 -1,200 Descending Aus ATC (RADAR)
Sun 04:53:03 AM -40.2210 146.1640 149° Southeast 491 565 26,200 -2,040 Descending FlightAware ADS-B
Sun 04:53:30 AM -40.2826 146.2111 149° Southeast 480 552 25,000 -2,267 Descending Aus ATC (RADAR)
Sun 04:53:48 AM -40.3100 146.2340 149° Southeast 475 547 24,500 -1,655 Descending FlightAware ADS-B
Sun 04:54:28 AM -40.3810 146.2890 149° Southeast 464 534 23,400 -1,870 Descending FlightAware ADS-B
Sun 04:55:05 AM -40.4589 146.3474 149° Southeast 442 509 22,100 -1,800 Descending Aus ATC (RADAR)
Sun 04:55:08 AM -40.4550 146.3470 149° Southeast 446 513 22,200 -2,000 Climbing FlightAware ADS-B
Sun 04:55:53 AM -40.5340 146.4080 150° Southeast 435 501 20,500 -2,471 Descending FlightAware ADS-B
Sun 04:56:33 AM -40.6040 146.4630 149° Southeast 431 496 18,700 -2,400 Descending FlightAware ADS-B
Sun 04:57:18 AM -40.6830 146.5250 149° Southeast 418 481 17,100 -2,113 Descending FlightAware ADS-B
Sun 04:57:44 AM -40.7331 146.5650 149° Southeast 410 472 16,200 -1,650 Descending Aus ATC (RADAR)
Sun 04:57:58 AM -40.7470 146.5760 149° Southeast 409 471 16,000 -2,280 Descending FlightAware ADS-B
Sun 04:58:34 AM -40.8127 146.6276 149° Southeast 387 445 14,300 -2,533 Descending Aus ATC (RADAR)
Sun 04:58:43 AM -40.8190 146.6330 149° Southeast 400 460 14,100 -1,592 Descending FlightAware ADS-B
Sun 04:59:23 AM -40.8830 146.6840 149° Southeast 395 455 13,000 -1,607 Descending FlightAware ADS-B
Sun 04:59:39 AM -40.9157 146.7097 149° Southeast 384 442 12,600 -1,050 Descending Aus ATC (RADAR)
Sun 05:00:03 AM -40.9440 146.7320 149° Southeast 373 429 12,300 -957 Descending FlightAware ADS-B
Sun 05:00:48 AM -41.0100 146.7840 149° Southeast 339 390 11,500 -918 Descending FlightAware ADS-B
Sun 05:01:28 AM -41.0600 146.8250 148° Southeast 316 364 11,000 -1,371 Descending FlightAware ADS-B
Sun 05:01:58 AM -41.0990 146.8550 150° Southeast 303 349 9,900 -1,855 Descending FlightAware ADS-B
Sun 05:02:23 AM -41.1280 146.8780 149° Southeast 303 349 9,300 -1,309 Descending FlightAware ADS-B
Sun 05:02:53 AM -41.1650 146.9080 149° Southeast 301 346 8,700 -1,333 Descending FlightAware ADS-B
Sun 05:03:08 AM -41.1840 146.9230 149° Southeast 290 334 8,300 -1,350 Descending FlightAware ADS-B
Sun 05:03:33 AM -41.2120 146.9460 148° Southeast 288 331 7,800 -1,565 Descending FlightAware ADS-B
Sun 05:03:54 AM -41.2413 146.9692 148° Southeast 285 328 7,100 -1,400 Descending Aus ATC (RADAR)
Sun 05:04:03 AM -41.2460 146.9730 148° Southeast 282 325 7,100 -1,077 Level FlightAware ADS-B
Sun 05:04:33 AM -41.2800 147.0010 148° Southeast 283 326 6,400 -1,529 Descending FlightAware ADS-B
Sun 05:04:54 AM -41.3089 147.0233 148° Southeast 274 315 5,800 -1,200 Descending Aus ATC (RADAR)
Sun 05:04:58 AM -41.3080 147.0230 148° Southeast 270 311 5,900 -706 Climbing FlightAware ADS-B
Sun 05:05:28 AM -41.3400 147.0480 150° Southeast 268 308 5,400 -1,200 Descending FlightAware ADS-B
Sun 05:05:43 AM -41.3550 147.0600 149° Southeast 268 308 5,000 -1,050 Descending FlightAware ADS-B
Sun 05:06:08 AM -41.3820 147.0830 147° Southeast 245 282 4,700 -878 Descending FlightAware ADS-B
Sun 05:06:24 AM -41.4021 147.0989 147° Southeast 248 285 4,400 -800 Descending Aus ATC (RADAR)
Sun 05:06:38 AM -41.4120 147.1070 147° Southeast 231 266 4,300 -414 Descending FlightAware ADS-B
Sun 05:06:53 AM -41.4240 147.1170 148° Southeast 228 262 4,200 -1,000 Descending FlightAware ADS-B
Sun 05:07:14 AM -41.4473 147.1352 148° Southeast 223 257 3,700 -960 Descending Aus ATC (RADAR)
Sun 05:07:18 AM -41.4440 147.1330 148° Southeast 226 260 3,800 -529 Climbing FlightAware ADS-B
Sun 05:07:48 AM -41.4710 147.1550 149° Southeast 207 238 3,400 -857 Descending FlightAware ADS-B
Sun 05:08:28 AM -41.5090 147.1700 164° South 194 223 2,800 -982 Descending FlightAware ADS-B
Sun 05:08:43 AM -41.5210 147.1690 184° South 192 221 2,500 -800 Descending FlightAware ADS-B
Sun 05:09:13 AM -41.5500 147.1720 176° South 198 228 2,200 -480 Descending FlightAware ADS-B
Sun 05:09:33 AM -41.5720 147.1798 176° South 187 215 2,100  Descending Aus ATC (RADAR)
Sun 05:09:38 AM -41.5730 147.1820 176° South 201 231 2,200 171 Climbing FlightAware ADS-B
Sun 05:10:08 AM -41.5970 147.2040 146° Southeast 194 223 2,200 -150 Level FlightAware ADS-B
Sun 05:10:18 AM -41.6010 147.2110 127° Southeast 192 221 2,100 -600 Descending FlightAware ADS-B
Sun 05:10:28 AM -41.6040 147.2230 108° East 179 206 2,000 -600 Descending FlightAware ADS-B
Sun 05:10:48 AM -41.5980 147.2410 66° East 153 176 1,800 -686 Descending FlightAware ADS-B
Sun 05:11:03 AM -41.5890 147.2460 23° Northeast 144 166 1,600 -857 Descending FlightAware ADS-B
Sun 05:11:23 AM -41.5780 147.2390 335° Northwest 134 154 1,300 -1,050 Descending FlightAware ADS-B
Sun 05:11:43 AM -41.5646 147.2271 335° Northwest 136 157 900  Descending Aus ATC (RADAR)
Sun 05:11:48 AM -41.5660 147.2280 335° Northwest 134 154 1,300 -750 Climbing FlightAware ADS-B
Sun 05:12:23 AM -41.5439 147.2100 335° Northwest 132 152 400 -1,543 Descending Aus ATC (RADAR)

Login

Don't have an account? Register now (free) for customized features, flight alerts, and more!